createdAt,value
2018-04-10T00:02:21.481Z,66.74
2018-04-10T00:04:48.892Z,66.93
2018-04-10T00:07:16.329Z,67.18
2018-04-10T00:09:43.732Z,67.30
2018-04-10T00:12:11.123Z,67.43
2018-04-10T00:14:38.634Z,67.42
2018-04-10T00:17:06.059Z,67.37
2018-04-10T00:19:33.485Z,67.32
2018-04-10T00:22:00.870Z,67.39
2018-04-10T00:24:28.296Z,67.19
2018-04-10T00:26:55.722Z,67.48
2018-04-10T00:29:23.147Z,68.05
2018-04-10T00:31:50.592Z,68.72
2018-04-10T00:34:18.108Z,68.91
2018-04-10T00:36:46.292Z,68.90
2018-04-10T00:39:13.694Z,68.86
2018-04-10T00:41:41.257Z,68.68
2018-04-10T00:44:08.663Z,68.48
2018-04-10T00:46:36.059Z,68.32
2018-04-10T00:49:03.459Z,68.21
2018-04-10T00:51:31.069Z,68.10
2018-04-10T00:53:58.486Z,68.05
2018-04-10T00:56:25.887Z,68.03
2018-04-10T00:58:53.321Z,68.27
2018-04-10T01:01:20.717Z,68.33
2018-04-10T01:03:48.116Z,68.35
2018-04-10T01:06:15.510Z,68.32
2018-04-10T01:08:42.907Z,68.19
2018-04-10T01:11:10.303Z,68.17
2018-04-10T01:13:37.787Z,68.27
2018-04-10T01:16:05.190Z,68.11
2018-04-10T01:18:32.654Z,68.18
2018-04-10T01:21:00.948Z,68.81
2018-04-10T01:23:28.530Z,69.04
2018-04-10T01:25:55.925Z,69.05
2018-04-10T01:28:23.351Z,69.33
2018-04-10T01:30:50.766Z,69.89
2018-04-10T01:33:18.201Z,70.22
2018-04-10T01:35:46.353Z,70.00
2018-04-10T01:38:13.749Z,69.99
2018-04-10T01:40:41.179Z,70.11
2018-04-10T01:43:08.648Z,70.13
2018-04-10T01:45:36.082Z,69.78
2018-04-10T01:48:03.607Z,69.69
2018-04-10T01:50:30.997Z,69.53
2018-04-10T01:52:58.464Z,69.19
2018-04-10T01:55:25.927Z,69.24
2018-04-10T01:57:53.549Z,69.32
2018-04-10T02:00:20.973Z,69.22
2018-04-10T02:02:48.573Z,69.06
2018-04-10T02:05:16.006Z,68.90
2018-04-10T02:07:43.471Z,68.66
2018-04-10T02:10:28.368Z,68.43
2018-04-10T02:12:55.821Z,68.27
2018-04-10T02:15:23.230Z,68.25
2018-04-10T02:17:50.656Z,68.37
2018-04-10T02:20:18.084Z,68.53
2018-04-10T02:22:45.498Z,68.76
2018-04-10T02:25:12.906Z,68.79
2018-04-10T02:27:40.330Z,68.72
2018-04-10T02:30:07.759Z,68.85
2018-04-10T02:32:35.207Z,69.19
2018-04-10T02:35:02.610Z,69.34
2018-04-10T02:37:30.053Z,69.41
2018-04-10T02:39:57.443Z,69.15
2018-04-10T02:42:25.026Z,69.07
2018-04-10T02:44:52.555Z,68.96
2018-04-10T02:47:19.962Z,69.07
2018-04-10T02:49:47.360Z,69.31
2018-04-10T02:52:14.759Z,69.50
2018-04-10T02:54:42.210Z,69.78
2018-04-10T02:57:09.639Z,70.12
2018-04-10T02:59:37.158Z,70.07
2018-04-10T03:02:04.550Z,70.14
2018-04-10T03:04:31.978Z,71.03
2018-04-10T03:06:59.378Z,71.44
2018-04-10T03:09:26.866Z,71.24
2018-04-10T03:11:54.271Z,71.05
2018-04-10T03:14:21.707Z,71.60
2018-04-10T03:16:49.089Z,72.17
2018-04-10T03:19:16.596Z,72.28
2018-04-10T03:21:44.122Z,71.96
2018-04-10T03:24:11.733Z,71.88
2018-04-10T03:26:39.150Z,71.54
2018-04-10T03:29:06.579Z,71.35
2018-04-10T03:31:33.996Z,70.97
2018-04-10T03:34:01.407Z,70.65
2018-04-10T03:36:28.849Z,70.85
2018-04-10T03:38:56.307Z,71.06
2018-04-10T03:41:23.808Z,70.84
2018-04-10T03:43:51.250Z,70.87
2018-04-10T03:46:18.649Z,70.70
2018-04-10T03:48:46.090Z,70.73
2018-04-10T03:51:13.504Z,70.92
2018-04-10T03:53:41.762Z,71.27
2018-04-10T03:56:09.202Z,71.30
2018-04-10T03:58:36.689Z,71.25
2018-04-10T04:01:04.125Z,71.71
2018-04-10T04:03:31.581Z,71.92
2018-04-10T04:05:59.016Z,71.73
2018-04-10T04:08:26.482Z,71.38
2018-04-10T04:10:53.936Z,71.35
2018-04-10T04:13:21.472Z,70.96
2018-04-10T04:15:48.944Z,70.52
2018-04-10T04:18:28.055Z,70.43
2018-04-10T04:21:07.237Z,70.25
2018-04-10T04:23:34.687Z,69.99
2018-04-10T04:26:02.184Z,69.90
2018-04-10T04:28:29.595Z,70.11
2018-04-10T04:30:57.712Z,70.09
2018-04-10T04:33:25.208Z,70.00
2018-04-10T04:35:52.687Z,69.72
2018-04-10T04:38:20.139Z,69.46
2018-04-10T04:40:47.528Z,69.36
2018-04-10T04:43:14.995Z,69.55
2018-04-10T04:45:42.423Z,69.74
2018-04-10T04:48:10.234Z,69.79
2018-04-10T04:50:37.656Z,69.68
2018-04-10T04:53:05.081Z,69.47
2018-04-10T04:55:32.506Z,69.33
2018-04-10T04:57:59.987Z,69.23
2018-04-10T05:00:27.448Z,69.34
2018-04-10T05:02:54.924Z,69.56
2018-04-10T05:05:22.360Z,69.60
2018-04-10T05:07:49.763Z,69.76
2018-04-10T05:10:17.491Z,69.58
2018-04-10T05:12:44.960Z,69.76
2018-04-10T05:15:12.419Z,70.62
2018-04-10T05:17:39.858Z,71.79
2018-04-10T05:20:07.266Z,72.23
2018-04-10T05:22:34.735Z,72.42
2018-04-10T05:25:02.276Z,72.52
2018-04-10T05:27:29.742Z,72.45
2018-04-10T05:29:57.391Z,72.20
2018-04-10T05:32:25.542Z,72.19
2018-04-10T05:34:52.992Z,71.10
2018-04-10T05:37:20.447Z,69.88
2018-04-10T05:39:48.210Z,68.55
2018-04-10T05:42:15.730Z,68.26
2018-04-10T05:44:43.161Z,68.09
2018-04-10T05:47:10.667Z,67.82
2018-04-10T05:49:38.195Z,67.98
2018-04-10T05:52:05.641Z,67.91
2018-04-10T05:54:33.173Z,67.76
2018-04-10T05:57:00.856Z,67.23
2018-04-10T05:59:28.496Z,66.57
2018-04-10T06:01:55.973Z,65.68
2018-04-10T06:04:23.464Z,64.87
2018-04-10T06:06:50.913Z,64.57
2018-04-10T06:09:18.311Z,64.14
2018-04-10T06:11:45.794Z,63.88
2018-04-10T06:14:13.244Z,63.53
2018-04-10T06:16:40.627Z,63.29
2018-04-10T06:19:08.034Z,62.84
2018-04-10T06:21:35.612Z,62.64
2018-04-10T06:24:03.072Z,62.35
2018-04-10T06:26:30.582Z,62.32
2018-04-10T06:28:58.821Z,62.52
2018-04-10T06:31:26.224Z,62.51
2018-04-10T06:33:53.795Z,62.31
2018-04-10T06:36:21.223Z,62.18
2018-04-10T06:38:48.618Z,62.31
2018-04-10T06:41:16.090Z,62.32
2018-04-10T06:43:43.502Z,62.12
2018-04-10T06:46:10.973Z,61.96
2018-04-10T06:48:38.451Z,61.39
2018-04-10T06:51:05.884Z,61.05
2018-04-10T06:53:33.310Z,61.25
2018-04-10T06:56:01.040Z,60.99
2018-04-10T06:58:28.496Z,61.07
2018-04-10T07:00:55.931Z,61.58
2018-04-10T07:03:23.339Z,61.60
2018-04-10T07:05:50.763Z,61.99
2018-04-10T07:08:18.242Z,62.16
2018-04-10T07:10:45.715Z,62.25
2018-04-10T07:13:13.139Z,62.42
2018-04-10T07:15:40.620Z,62.44
2018-04-10T07:18:08.039Z,62.47
2018-04-10T07:20:35.460Z,62.27
2018-04-10T07:23:02.861Z,62.69
2018-04-10T07:25:30.343Z,63.62
2018-04-10T07:27:57.807Z,64.84
2018-04-10T07:30:25.258Z,65.89
2018-04-10T07:32:52.716Z,67.34
2018-04-10T07:35:20.126Z,68.35
2018-04-10T07:37:47.552Z,68.83
2018-04-10T07:40:14.980Z,70.01
2018-04-10T07:42:42.449Z,71.23
2018-04-10T07:45:09.864Z,71.20
2018-04-10T07:47:37.460Z,71.52
2018-04-10T07:50:04.904Z,71.77
2018-04-10T07:52:32.404Z,70.30
2018-04-10T07:54:59.864Z,71.06
2018-04-10T07:57:27.383Z,70.34
2018-04-10T07:59:54.848Z,70.24
2018-04-10T08:02:22.324Z,70.04
2018-04-10T08:04:49.792Z,69.80
2018-04-10T08:07:17.176Z,70.43
2018-04-10T08:09:44.656Z,70.76
2018-04-10T08:12:12.083Z,71.52
2018-04-10T08:14:39.539Z,71.25
2018-04-10T08:17:07.042Z,70.67
2018-04-10T08:19:34.422Z,70.81
2018-04-10T08:22:01.904Z,70.85
2018-04-10T08:24:29.384Z,71.02
2018-04-10T08:26:56.852Z,70.63
2018-04-10T08:29:24.280Z,70.23
2018-04-10T08:31:51.685Z,69.74
2018-04-10T08:34:19.119Z,69.12
2018-04-10T08:36:46.537Z,68.96
2018-04-10T08:39:13.963Z,69.08
2018-04-10T08:41:41.423Z,68.79
2018-04-10T08:44:08.875Z,68.57
2018-04-10T08:46:36.274Z,67.51
2018-04-10T08:49:03.687Z,67.35
2018-04-10T08:51:31.107Z,66.33
2018-04-10T08:53:58.584Z,66.53
2018-04-10T08:56:26.005Z,65.97
2018-04-10T08:58:53.431Z,65.74
2018-04-10T09:01:20.886Z,65.47
2018-04-10T09:03:48.439Z,65.15
2018-04-10T09:06:15.974Z,64.65
2018-04-10T09:08:43.458Z,64.99
2018-04-10T09:11:10.883Z,64.69
2018-04-10T09:13:38.292Z,65.39
2018-04-10T09:16:05.753Z,64.49
2018-04-10T09:18:33.230Z,63.54
2018-04-10T09:21:00.698Z,62.69
2018-04-10T09:23:28.222Z,62.41
2018-04-10T09:25:56.095Z,62.66
2018-04-10T09:28:23.550Z,61.99
2018-04-10T09:30:51.085Z,62.07
2018-04-10T09:33:18.543Z,62.59
2018-04-10T09:35:45.984Z,62.28
2018-04-10T09:38:14.369Z,62.81
2018-04-10T09:40:41.904Z,63.29
2018-04-10T09:43:09.343Z,62.67
2018-04-10T09:45:36.738Z,62.67
2018-04-10T09:48:04.213Z,62.61
2018-04-10T09:50:31.850Z,62.84
2018-04-10T09:52:59.371Z,62.31
2018-04-10T09:55:26.796Z,61.65
2018-04-10T09:57:54.237Z,61.67
2018-04-10T10:00:27.319Z,59.28
2018-04-10T10:02:54.717Z,59.66
2018-04-10T10:05:22.176Z,59.86
2018-04-10T10:07:49.727Z,59.32
2018-04-10T10:10:17.179Z,59.38
2018-04-10T10:12:44.696Z,58.79
2018-04-10T10:15:12.163Z,59.04
2018-04-10T10:17:39.595Z,58.79
2018-04-10T10:20:07.092Z,58.01
2018-04-10T10:22:34.630Z,57.61
2018-04-10T10:25:02.084Z,57.59
2018-04-10T10:27:29.478Z,58.65
2018-04-10T10:29:56.927Z,59.27
2018-04-10T10:32:24.355Z,59.42
2018-04-10T10:34:51.748Z,59.32
2018-04-10T10:37:19.694Z,61.12
2018-04-10T10:39:47.147Z,60.48
2018-04-10T10:42:14.539Z,60.50
2018-04-10T10:44:41.938Z,61.71
2018-04-10T10:47:09.431Z,62.45
2018-04-10T10:49:36.871Z,62.77
2018-04-10T10:52:04.810Z,63.25
2018-04-10T10:54:32.227Z,63.98
2018-04-10T10:56:59.695Z,64.52
2018-04-10T10:59:27.148Z,64.14
2018-04-10T11:01:54.587Z,65.36
2018-04-10T11:04:21.974Z,66.17
2018-04-10T11:06:49.477Z,66.62
2018-04-10T11:09:16.842Z,66.54
2018-04-10T11:11:44.359Z,67.21
2018-04-10T11:14:11.852Z,67.42
2018-04-10T11:16:39.320Z,67.08
2018-04-10T11:19:06.792Z,67.43
2018-04-10T11:21:34.235Z,67.14
2018-04-10T11:24:02.215Z,67.42
2018-04-10T11:26:29.648Z,66.87
2018-04-10T11:28:57.082Z,66.46
2018-04-10T11:31:24.616Z,66.44
2018-04-10T11:33:52.123Z,66.18
2018-04-10T11:36:19.559Z,65.84
2018-04-10T11:38:47.099Z,65.81
2018-04-10T11:41:14.667Z,66.10
2018-04-10T11:43:42.192Z,65.23
2018-04-10T11:46:09.620Z,64.40
2018-04-10T11:48:37.108Z,63.09
2018-04-10T11:51:04.550Z,61.53
2018-04-10T11:53:32.048Z,61.26
2018-04-10T11:55:59.453Z,60.13
2018-04-10T11:58:26.884Z,59.18
2018-04-10T12:00:54.463Z,58.51
2018-04-10T12:03:21.938Z,57.93
2018-04-10T12:05:49.399Z,57.46
2018-04-10T12:08:17.029Z,57.25
2018-04-10T12:10:44.599Z,56.63
2018-04-10T12:13:12.267Z,55.99
2018-04-10T12:15:39.656Z,55.89
2018-04-10T12:18:07.104Z,54.75
2018-04-10T12:20:34.545Z,52.91
2018-04-10T12:23:02.551Z,52.35
2018-04-10T12:25:30.145Z,51.58
2018-04-10T12:27:57.648Z,50.71
2018-04-10T12:30:25.105Z,49.50
2018-04-10T12:32:52.505Z,48.33
2018-04-10T12:35:19.931Z,47.33
2018-04-10T12:37:47.333Z,47.57
2018-04-10T12:40:14.726Z,47.17
2018-04-10T12:42:42.165Z,45.70
2018-04-10T12:45:09.690Z,45.74
2018-04-10T12:47:37.161Z,44.81
2018-04-10T12:50:04.587Z,44.06
2018-04-10T12:52:32.096Z,44.04
2018-04-10T12:54:59.566Z,43.36
2018-04-10T12:57:27.044Z,43.74
2018-04-10T12:59:54.438Z,43.41
2018-04-10T13:02:21.832Z,42.43
2018-04-10T13:04:49.312Z,41.20
2018-04-10T13:07:16.843Z,41.33
2018-04-10T13:09:44.310Z,40.99
2018-04-10T13:12:11.757Z,42.09
2018-04-10T13:14:39.184Z,42.22
2018-04-10T13:17:06.574Z,41.85
2018-04-10T13:19:34.099Z,42.12
2018-04-10T13:22:01.535Z,42.94
2018-04-10T13:24:28.993Z,44.87
2018-04-10T13:26:56.437Z,44.89
2018-04-10T13:29:23.867Z,44.57
2018-04-10T13:31:51.258Z,44.20
2018-04-10T13:34:18.808Z,44.30
2018-04-10T13:36:46.202Z,44.86
2018-04-10T13:39:13.643Z,45.34
2018-04-10T13:41:41.103Z,45.11
2018-04-10T13:44:08.581Z,45.78
2018-04-10T13:46:36.049Z,45.42
2018-04-10T13:49:03.471Z,44.90
2018-04-10T13:51:30.921Z,45.29
2018-04-10T13:53:58.383Z,46.22
2018-04-10T13:56:26.771Z,46.47
2018-04-10T13:58:54.208Z,46.29
2018-04-10T14:01:21.652Z,46.36
2018-04-10T14:03:49.131Z,46.05
2018-04-10T14:06:16.562Z,45.92
2018-04-10T14:08:44.194Z,46.67
2018-04-10T14:11:11.649Z,46.73
2018-04-10T14:13:39.091Z,47.66
2018-04-10T14:16:06.571Z,47.73
2018-04-10T14:18:34.548Z,47.87
2018-04-10T14:21:01.979Z,48.69
2018-04-10T14:23:29.436Z,48.90
2018-04-10T14:25:56.913Z,48.74
2018-04-10T14:28:24.468Z,48.68
2018-04-10T14:30:51.925Z,48.22
2018-04-10T14:33:19.478Z,47.59
2018-04-10T14:35:46.911Z,47.00
2018-04-10T14:38:14.318Z,46.90
2018-04-10T14:40:41.709Z,47.10
2018-04-10T14:43:09.145Z,48.83
2018-04-10T14:45:36.567Z,48.77
2018-04-10T14:48:04.041Z,48.46
2018-04-10T14:50:31.727Z,47.31
2018-04-10T14:52:59.167Z,46.75
2018-04-10T14:55:27.219Z,46.28
2018-04-10T14:57:54.640Z,46.34
2018-04-10T15:00:22.041Z,47.07
2018-04-10T15:02:49.515Z,47.98
2018-04-10T15:05:17.171Z,47.42
2018-04-10T15:07:44.658Z,47.08
2018-04-10T15:10:12.128Z,47.38
2018-04-10T15:12:39.538Z,47.01
2018-04-10T15:15:06.986Z,46.96
2018-04-10T15:17:34.954Z,46.33
2018-04-10T15:20:02.370Z,45.91
2018-04-10T15:22:29.799Z,45.47
2018-04-10T15:24:57.214Z,44.74
2018-04-10T15:27:24.691Z,45.24
2018-04-10T15:29:52.149Z,45.36
2018-04-10T15:32:19.571Z,45.56
2018-04-10T15:34:47.028Z,46.38
2018-04-10T15:37:14.447Z,46.22
2018-04-10T15:39:41.879Z,46.83
2018-04-10T15:42:09.298Z,46.35
2018-04-10T15:44:36.714Z,46.07
2018-04-10T15:47:04.117Z,46.23
2018-04-10T15:49:31.491Z,46.40
2018-04-10T15:51:59.059Z,46.38
2018-04-10T15:54:26.775Z,46.28
2018-04-10T15:56:54.238Z,45.71
2018-04-10T15:59:21.666Z,45.92
2018-04-10T16:01:49.089Z,47.15
2018-04-10T16:04:16.523Z,48.09
2018-04-10T16:06:43.922Z,48.12
2018-04-10T16:09:11.514Z,48.64
2018-04-10T16:11:38.981Z,49.18
2018-04-10T16:14:06.513Z,48.77
2018-04-10T16:16:34.029Z,48.39
2018-04-10T16:19:01.504Z,48.80
2018-04-10T16:21:28.984Z,49.13
2018-04-10T16:23:56.440Z,48.86
2018-04-10T16:26:23.870Z,48.86
2018-04-10T16:28:51.269Z,48.84
2018-04-10T16:31:18.773Z,48.97
2018-04-10T16:33:46.242Z,49.12
2018-04-10T16:36:13.683Z,49.59
2018-04-10T16:38:41.139Z,49.60
2018-04-10T16:41:08.611Z,49.74
2018-04-10T16:43:36.007Z,49.99
2018-04-10T16:46:03.411Z,50.02
2018-04-10T16:48:30.893Z,50.29
2018-04-10T16:50:58.311Z,50.71
2018-04-10T16:53:25.760Z,50.85
2018-04-10T16:55:53.193Z,50.85
2018-04-10T16:58:20.600Z,50.99
2018-04-10T17:00:48.262Z,51.26
2018-04-10T17:03:15.765Z,51.79
2018-04-10T17:05:43.276Z,51.95
2018-04-10T17:08:10.736Z,52.17
2018-04-10T17:10:38.146Z,52.07
2018-04-10T17:13:05.640Z,52.21
2018-04-10T17:15:33.086Z,52.34
2018-04-10T17:18:01.221Z,52.62
2018-04-10T17:20:28.837Z,53.10
2018-04-10T17:22:56.261Z,53.63
2018-04-10T17:25:23.747Z,53.76
2018-04-10T17:27:51.217Z,53.80
2018-04-10T17:30:18.674Z,53.84
2018-04-10T17:32:46.071Z,53.73
2018-04-10T17:35:13.534Z,53.64
2018-04-10T17:37:41.244Z,53.53
2018-04-10T17:40:08.704Z,53.70
2018-04-10T17:42:36.139Z,53.84
2018-04-10T17:45:03.638Z,53.94
2018-04-10T17:47:31.153Z,54.10
2018-04-10T17:49:58.838Z,54.04
2018-04-10T17:52:26.305Z,53.89
2018-04-10T17:54:53.718Z,54.10
2018-04-10T17:57:21.208Z,54.15
2018-04-10T17:59:48.640Z,54.53
2018-04-10T18:02:16.107Z,54.81
2018-04-10T18:04:43.580Z,54.98
2018-04-10T18:07:12.794Z,55.19
2018-04-10T18:09:40.781Z,55.46
2018-04-10T18:12:08.244Z,55.73
2018-04-10T18:14:35.680Z,55.56
2018-04-10T18:17:03.065Z,55.76
2018-04-10T18:19:30.533Z,55.89
2018-04-10T18:21:58.039Z,56.08
2018-04-10T18:24:25.495Z,56.36
2018-04-10T18:26:52.918Z,56.62
2018-04-10T18:29:20.310Z,57.30
2018-04-10T18:31:47.750Z,57.42
2018-04-10T18:34:15.228Z,57.68
2018-04-10T18:36:42.753Z,57.90
2018-04-10T18:39:10.251Z,58.15
2018-04-10T18:41:37.689Z,58.11
2018-04-10T18:44:05.129Z,58.25
2018-04-10T18:46:32.585Z,58.32
2018-04-10T18:48:59.982Z,58.34
2018-04-10T18:51:27.386Z,58.68
2018-04-10T18:53:54.873Z,58.76
2018-04-10T18:56:22.310Z,58.89
2018-04-10T18:58:49.746Z,58.84
2018-04-10T19:01:17.296Z,59.06
2018-04-10T19:03:44.746Z,59.14
2018-04-10T19:06:12.204Z,59.26
2018-04-10T19:08:39.677Z,59.31
2018-04-10T19:11:07.908Z,59.37
2018-04-10T19:13:35.346Z,59.53
2018-04-10T19:16:02.804Z,59.69
2018-04-10T19:18:30.415Z,59.97
2018-04-10T19:20:57.873Z,60.03
2018-04-10T19:23:25.266Z,60.11
2018-04-10T19:25:52.793Z,60.46
2018-04-10T19:28:20.239Z,60.33
2018-04-10T19:30:47.697Z,60.49
2018-04-10T19:33:15.133Z,60.87
2018-04-10T19:35:42.521Z,61.04
2018-04-10T19:38:09.991Z,61.19
2018-04-10T19:40:37.442Z,61.33
2018-04-10T19:43:04.895Z,61.47
2018-04-10T19:45:32.331Z,61.84
2018-04-10T19:47:59.757Z,62.06
2018-04-10T19:50:27.175Z,62.25
2018-04-10T19:52:54.641Z,62.51
2018-04-10T19:55:22.274Z,62.91
2018-04-10T19:57:49.688Z,63.26
2018-04-10T20:00:17.256Z,63.46
2018-04-10T20:02:44.695Z,63.79
2018-04-10T20:05:12.205Z,64.06
2018-04-10T20:07:39.660Z,64.08
2018-04-10T20:10:07.088Z,64.30
2018-04-10T20:12:34.513Z,64.78
2018-04-10T20:15:01.949Z,65.11
2018-04-10T20:17:29.379Z,65.32
2018-04-10T20:19:56.776Z,65.58
2018-04-10T20:22:24.240Z,65.67
2018-04-10T20:24:51.647Z,65.99
2018-04-10T20:27:19.076Z,66.34
2018-04-10T20:29:46.515Z,66.44
2018-04-10T20:32:13.897Z,66.47
2018-04-10T20:34:41.541Z,66.72
2018-04-10T20:37:09.045Z,66.90
2018-04-10T20:39:36.506Z,66.90
2018-04-10T20:42:04.167Z,67.11
2018-04-10T20:44:31.553Z,66.82
2018-04-10T20:46:59.011Z,66.57
2018-04-10T20:49:26.437Z,66.38
2018-04-10T20:51:53.920Z,66.51
2018-04-10T20:54:21.559Z,66.58
2018-04-10T20:56:48.979Z,66.27
2018-04-10T20:59:17.089Z,66.12
2018-04-10T21:01:45.416Z,65.97
2018-04-10T21:04:12.904Z,65.89
2018-04-10T21:06:40.655Z,65.96
2018-04-10T21:09:08.099Z,66.59
2018-04-10T21:11:35.566Z,66.57
2018-04-10T21:14:02.988Z,66.41
2018-04-10T21:19:23.662Z,66.17
2018-04-10T21:21:51.166Z,66.18
2018-04-10T21:24:18.618Z,66.21
2018-04-10T21:26:46.077Z,66.62
2018-04-10T21:29:13.558Z,66.47
2018-04-10T21:31:41.316Z,66.44
2018-04-10T21:34:08.789Z,66.30
2018-04-10T21:36:36.245Z,66.18
2018-04-10T21:39:03.682Z,66.02
2018-04-10T21:41:31.137Z,65.95
2018-04-10T21:43:58.556Z,65.97
2018-04-10T21:46:26.019Z,66.03
2018-04-10T21:48:53.558Z,66.27
2018-04-10T21:51:20.959Z,66.54
2018-04-10T21:53:48.373Z,66.68
2018-04-10T21:56:15.788Z,66.49
2018-04-10T21:58:43.356Z,66.32
2018-04-10T22:01:10.750Z,66.18
2018-04-10T22:03:39.087Z,66.00
2018-04-10T22:06:06.523Z,65.98
2018-04-10T22:08:33.942Z,65.91
2018-04-10T22:11:01.396Z,65.97
2018-04-10T22:13:28.815Z,66.01
2018-04-10T22:15:56.311Z,66.13
2018-04-10T22:18:23.753Z,66.04
2018-04-10T22:20:51.178Z,65.51
2018-04-10T22:23:18.571Z,65.68
2018-04-10T22:25:46.035Z,65.47
2018-04-10T22:28:13.492Z,65.57
2018-04-10T22:30:40.976Z,66.18
2018-04-10T22:33:08.394Z,66.57
2018-04-10T22:35:35.853Z,66.87
2018-04-10T22:38:03.343Z,67.04
2018-04-10T22:40:30.767Z,67.13
2018-04-10T22:42:58.202Z,67.12
2018-04-10T22:45:25.634Z,67.31
2018-04-10T22:47:54.020Z,67.46
2018-04-10T22:50:21.452Z,67.68
2018-04-10T22:52:48.915Z,67.59
2018-04-10T22:55:16.383Z,67.65
2018-04-10T22:57:43.804Z,67.64
2018-04-10T23:00:11.241Z,67.74
2018-04-10T23:02:38.829Z,67.54
2018-04-10T23:05:06.264Z,67.75
2018-04-10T23:07:33.710Z,67.72
2018-04-10T23:10:01.119Z,67.55
2018-04-10T23:12:28.571Z,67.51
2018-04-10T23:14:56.879Z,67.72
2018-04-10T23:17:24.270Z,67.88
2018-04-10T23:19:51.708Z,68.04
2018-04-10T23:22:19.545Z,68.08
2018-04-10T23:24:46.963Z,67.71
2018-04-10T23:27:14.399Z,67.67
2018-04-10T23:29:41.804Z,67.71
2018-04-10T23:32:09.407Z,67.76
2018-04-10T23:34:36.878Z,68.02
2018-04-10T23:37:04.308Z,68.12
2018-04-10T23:39:31.748Z,68.19
2018-04-10T23:41:59.138Z,68.33
2018-04-10T23:44:26.616Z,68.47
2018-04-10T23:46:54.124Z,68.53
2018-04-10T23:49:21.571Z,68.75
2018-04-10T23:51:49.335Z,68.82
2018-04-10T23:54:16.778Z,68.83
2018-04-10T23:56:44.155Z,69.00
2018-04-10T23:59:11.552Z,69.26
